Carnival Valor — H3VR — position and weather

sailwx.info

Track history (hours):
 
Tides and Currents Weather Stations Pressure Air Temp Water Temp Dewpoint Dewpoint Depression Visibility Wind Speed Wind Dir Waves Ship Positions

Carnival Valor

Last reported at 2014-Oct-28 01:33 UTC. Time now 2014-Oct-30 13:04 UTC.
Position N 17°49' W 064°22'.

Type: Ship. MMSI: 354298000.

Date/timePositionNaut miles runAvg speedWind from/ knotsBaromVisibWave heightAir tempDewpointWater temp
2014-Oct-28 01:33N 17°49' W 064°22'43 0.9
2014-Oct-25 23:33N 18°03' W 063°39'1515.1
2014-Oct-25 22:33N 18°01' W 063°23'1815.0
2014-Oct-25 21:23N 18°00' W 063°05'2 2.0
2014-Oct-25 20:26N 18°01' W 063°03'0 0.0
2014-Oct-25 19:16N 18°01' W 063°03'0 0.0
2014-Oct-25 18:04N 18°01' W 063°03'0 0.0
2014-Oct-25 17:19N 18°01' W 063°03'0 0.0
2014-Oct-25 16:30N 18°01' W 063°03'0 0.0
2014-Oct-25 15:06N 18°01' W 063°03'0 0.0
2014-Oct-25 13:29N 18°01' W 063°03'0 0.0
2014-Oct-25 12:22N 18°01' W 063°03'2 0.9
2014-Oct-25 10:30N 17°60' W 063°04'1310.2
2014-Oct-25 09:15N 18°02' W 063°18'8 9.2
2014-Oct-25 08:25N 18°05' W 063°25'8 9.1
2014-Oct-25 07:33N 18°08' W 063°33'7 7.0
2014-Oct-25 06:33N 18°05' W 063°40'8 7.9
2014-Oct-25 05:32N 17°59' W 063°35'9 9.4
2014-Oct-25 04:33N 17°59' W 063°25'11 9.6
2014-Oct-25 03:27N 17°51' W 063°17'910.3
2014-Oct-25 02:33N 17°44' W 063°11'10 9.9
2014-Oct-25 01:29N 17°35' W 063°07'  
2014-Oct-21 01:05N 17°52' W 064°23'3111.6
2014-Oct-20 22:27N 18°08' W 064°50'70 1.5
2014-Oct-18 23:33N 18°03' W 063°37'1414.2
2014-Oct-18 22:33N 18°01' W 063°23'1614.5
2014-Oct-18 21:29N 18°00' W 063°06'3 2.9
2014-Oct-18 20:18N 18°01' W 063°03'0 0.0
2014-Oct-18 19:09N 18°01' W 063°03'0 0.0
2014-Oct-18 18:23N 18°01' W 063°03'0 0.0
2014-Oct-18 17:32N 18°01' W 063°03'0 0.0
2014-Oct-18 16:25N 18°01' W 063°03'0 0.0
2014-Oct-18 15:31N 18°01' W 063°03'0 0.0
2014-Oct-18 14:22N 18°01' W 063°03'0 0.0
2014-Oct-18 12:27N 18°01' W 063°03'0 0.0
2014-Oct-18 11:32N 18°01' W 063°03'1 1.1
2014-Oct-18 10:31N 18°00' W 063°04'10 8.9
2014-Oct-18 09:20N 18°01' W 063°15'8 9.9
2014-Oct-18 08:32N 18°04' W 063°23'1010.5
2014-Oct-18 07:32N 18°08' W 063°33'7 7.3
2014-Oct-18 06:33N 18°05' W 063°40'8 7.7
2014-Oct-18 05:32N 17°59' W 063°34'10 9.9
2014-Oct-18 04:33N 17°59' W 063°24'11 9.6
2014-Oct-18 03:25N 17°51' W 063°16'910.0
2014-Oct-18 02:29N 17°43' W 063°10'  
Track history (hours):
 
Tides and Currents Weather Stations Pressure Air Temp Water Temp Dewpoint Dewpoint Depression Visibility Wind Speed Wind Dir Waves Ship Positions

Carnival Valor

Last reported at 2014-Oct-28 01:33 UTC. Time now 2014-Oct-30 13:04 UTC.
Position N 17°49' W 064°22'.

Type: Ship. MMSI: 354298000.

Date/timePositionNaut miles runAvg speedWind from/ knotsBaromVisibWave heightAir tempDewpointWater temp
2014-Oct-28 01:33N 17°49' W 064°22'43 0.9
2014-Oct-25 23:33N 18°03' W 063°39'1515.1
2014-Oct-25 22:33N 18°01' W 063°23'1815.0
2014-Oct-25 21:23N 18°00' W 063°05'2 2.0
2014-Oct-25 20:26N 18°01' W 063°03'0 0.0
2014-Oct-25 19:16N 18°01' W 063°03'0 0.0
2014-Oct-25 18:04N 18°01' W 063°03'0 0.0
2014-Oct-25 17:19N 18°01' W 063°03'0 0.0
2014-Oct-25 16:30N 18°01' W 063°03'0 0.0
2014-Oct-25 15:06N 18°01' W 063°03'0 0.0
2014-Oct-25 13:29N 18°01' W 063°03'0 0.0
2014-Oct-25 12:22N 18°01' W 063°03'2 0.9
2014-Oct-25 10:30N 17°60' W 063°04'1310.2
2014-Oct-25 09:15N 18°02' W 063°18'8 9.2
2014-Oct-25 08:25N 18°05' W 063°25'8 9.1
2014-Oct-25 07:33N 18°08' W 063°33'7 7.0
2014-Oct-25 06:33N 18°05' W 063°40'8 7.9
2014-Oct-25 05:32N 17°59' W 063°35'9 9.4
2014-Oct-25 04:33N 17°59' W 063°25'11 9.6
2014-Oct-25 03:27N 17°51' W 063°17'910.3
2014-Oct-25 02:33N 17°44' W 063°11'10 9.9
2014-Oct-25 01:29N 17°35' W 063°07'  
2014-Oct-21 01:05N 17°52' W 064°23'3111.6
2014-Oct-20 22:27N 18°08' W 064°50'70 1.5
2014-Oct-18 23:33N 18°03' W 063°37'1414.2
2014-Oct-18 22:33N 18°01' W 063°23'1614.5
2014-Oct-18 21:29N 18°00' W 063°06'3 2.9
2014-Oct-18 20:18N 18°01' W 063°03'0 0.0
2014-Oct-18 19:09N 18°01' W 063°03'0 0.0
2014-Oct-18 18:23N 18°01' W 063°03'0 0.0
2014-Oct-18 17:32N 18°01' W 063°03'0 0.0
2014-Oct-18 16:25N 18°01' W 063°03'0 0.0
2014-Oct-18 15:31N 18°01' W 063°03'0 0.0
2014-Oct-18 14:22N 18°01' W 063°03'0 0.0
2014-Oct-18 12:27N 18°01' W 063°03'0 0.0
2014-Oct-18 11:32N 18°01' W 063°03'1 1.1
2014-Oct-18 10:31N 18°00' W 063°04'10 8.9
2014-Oct-18 09:20N 18°01' W 063°15'8 9.9
2014-Oct-18 08:32N 18°04' W 063°23'1010.5
2014-Oct-18 07:32N 18°08' W 063°33'7 7.3
2014-Oct-18 06:33N 18°05' W 063°40'8 7.7
2014-Oct-18 05:32N 17°59' W 063°34'10 9.9
2014-Oct-18 04:33N 17°59' W 063°24'11 9.6
2014-Oct-18 03:25N 17°51' W 063°16'910.0
2014-Oct-18 02:29N 17°43' W 063°10'  

Dump ship's entire track history